createdAt,value
2023-01-25T00:01:35.420Z,91.80
2023-01-25T00:04:02.795Z,91.90
2023-01-25T00:06:30.633Z,91.80
2023-01-25T00:08:58.003Z,91.80
2023-01-25T00:11:25.287Z,91.80
2023-01-25T00:13:56.515Z,91.80
2023-01-25T00:16:24.572Z,91.90
2023-01-25T00:18:51.926Z,92.00
2023-01-25T00:21:22.246Z,91.80
2023-01-25T00:23:50.612Z,91.80
2023-01-25T00:26:18.173Z,91.70
2023-01-25T00:28:53.074Z,91.60
2023-01-25T00:31:38.149Z,91.60
2023-01-25T00:34:24.572Z,91.70
2023-01-25T00:36:57.141Z,91.70
2023-01-25T00:39:26.973Z,91.60
2023-01-25T00:41:54.910Z,91.60
2023-01-25T00:44:22.581Z,91.70
2023-01-25T00:46:49.985Z,91.80
2023-01-25T00:49:26.487Z,91.80
2023-01-25T00:51:55.692Z,91.90
2023-01-25T00:54:23.519Z,91.90
2023-01-25T00:56:53.732Z,91.80
2023-01-25T00:59:21.091Z,91.70
2023-01-25T01:01:49.011Z,91.70
2023-01-25T01:04:19.122Z,91.60
2023-01-25T01:06:46.524Z,91.80
2023-01-25T01:09:16.839Z,91.70
2023-01-25T01:11:44.412Z,91.70
2023-01-25T01:14:12.742Z,91.70
2023-01-25T01:16:40.311Z,91.90
2023-01-25T01:19:10.701Z,91.80
2023-01-25T01:21:38.311Z,92.00
2023-01-25T01:24:06.093Z,91.80
2023-01-25T01:26:33.589Z,91.70
2023-01-25T01:29:01.033Z,91.70
2023-01-25T01:31:28.824Z,91.70
2023-01-25T01:34:17.422Z,91.60
2023-01-25T01:36:45.147Z,91.70
2023-01-25T01:39:12.745Z,91.80
2023-01-25T01:41:40.626Z,91.80
2023-01-25T01:44:19.840Z,91.90
2023-01-25T01:46:56.849Z,91.90
2023-01-25T01:49:31.740Z,92.00
2023-01-25T01:52:17.775Z,92.00
2023-01-25T01:54:58.429Z,92.00
2023-01-25T01:57:32.370Z,92.00
2023-01-25T02:00:08.480Z,92.00
2023-01-25T02:02:41.987Z,92.10
2023-01-25T02:05:32.943Z,92.00
2023-01-25T02:08:02.761Z,92.10
2023-01-25T02:10:30.499Z,92.30
2023-01-25T02:12:59.875Z,92.30
2023-01-25T02:15:33.401Z,92.30
2023-01-25T02:18:03.204Z,92.30
2023-01-25T02:20:43.154Z,92.30
2023-01-25T02:23:38.623Z,92.20
2023-01-25T02:26:07.167Z,92.20
2023-01-25T02:28:40.658Z,92.20
2023-01-25T02:31:08.085Z,92.30
2023-01-25T02:33:35.928Z,92.40
2023-01-25T02:36:07.529Z,92.40
2023-01-25T02:38:38.812Z,92.40
2023-01-25T02:41:15.593Z,92.40
2023-01-25T02:43:43.726Z,92.40
2023-01-25T02:46:20.669Z,92.40
2023-01-25T02:48:48.192Z,92.40
2023-01-25T02:51:15.912Z,92.30
2023-01-25T02:53:43.397Z,92.30
2023-01-25T02:56:10.846Z,92.40
2023-01-25T02:58:38.235Z,92.30
2023-01-25T03:01:05.774Z,92.40
2023-01-25T03:03:33.622Z,92.30
2023-01-25T03:06:02.073Z,92.60
2023-01-25T03:08:30.556Z,92.30
2023-01-25T03:11:00.636Z,92.40
2023-01-25T03:13:30.721Z,92.40
2023-01-25T03:16:04.181Z,92.40
2023-01-25T03:18:32.471Z,92.40
2023-01-25T03:21:07.240Z,92.40
2023-01-25T03:23:35.049Z,92.40
2023-01-25T03:26:12.019Z,92.30
2023-01-25T03:28:48.844Z,92.30
2023-01-25T03:31:17.442Z,92.40
2023-01-25T03:33:45.503Z,92.40
2023-01-25T03:36:13.821Z,92.30
2023-01-25T03:38:42.820Z,92.40
2023-01-25T03:41:13.867Z,92.40
2023-01-25T03:43:41.262Z,92.50
2023-01-25T03:46:08.718Z,92.50
2023-01-25T03:48:36.136Z,92.50
2023-01-25T03:51:05.437Z,92.60
2023-01-25T03:53:32.969Z,92.60
2023-01-25T03:56:10.830Z,92.60
2023-01-25T03:58:40.211Z,92.70
2023-01-25T04:01:09.828Z,92.60
2023-01-25T04:03:38.352Z,92.70
2023-01-25T04:06:07.090Z,93.00
2023-01-25T04:08:35.026Z,92.80
2023-01-25T04:11:07.629Z,92.80
2023-01-25T04:13:36.683Z,92.80
2023-01-25T04:16:07.561Z,92.90
2023-01-25T04:18:58.264Z,92.90
2023-01-25T04:21:27.067Z,92.90
2023-01-25T04:23:54.474Z,92.90
2023-01-25T04:26:21.846Z,93.00
2023-01-25T04:28:55.015Z,92.90
2023-01-25T04:31:22.622Z,92.90
2023-01-25T04:33:51.370Z,93.00
2023-01-25T04:36:20.099Z,93.00
2023-01-25T04:38:48.240Z,93.00
2023-01-25T04:41:17.495Z,93.00
2023-01-25T04:43:45.980Z,93.00
2023-01-25T04:46:15.208Z,92.90
2023-01-25T04:48:43.636Z,93.20
2023-01-25T04:51:11.119Z,93.00
2023-01-25T04:53:38.490Z,93.00
2023-01-25T04:56:07.719Z,92.90
2023-01-25T04:58:44.577Z,92.90
2023-01-25T05:01:12.640Z,92.90
2023-01-25T05:03:40.527Z,93.00
2023-01-25T05:06:15.647Z,93.00
2023-01-25T05:08:43.113Z,92.90
2023-01-25T05:11:11.132Z,93.10
2023-01-25T05:13:38.422Z,92.90
2023-01-25T05:16:18.243Z,93.00
2023-01-25T05:18:48.838Z,92.90
2023-01-25T05:21:39.728Z,93.00
2023-01-25T05:24:08.415Z,93.00
2023-01-25T05:26:54.537Z,93.00
2023-01-25T05:29:22.201Z,93.00
2023-01-25T05:31:55.086Z,93.00
2023-01-25T05:34:22.648Z,93.00
2023-01-25T05:36:50.318Z,92.90
2023-01-25T05:39:17.878Z,92.80
2023-01-25T05:41:47.980Z,92.80
2023-01-25T05:44:15.784Z,92.90
2023-01-25T05:46:46.945Z,92.90
2023-01-25T05:49:15.543Z,93.00
2023-01-25T05:51:44.152Z,93.10
2023-01-25T05:54:17.556Z,93.00
2023-01-25T05:56:51.398Z,92.90
2023-01-25T05:59:19.310Z,92.90
2023-01-25T06:01:47.579Z,92.80
2023-01-25T06:04:16.535Z,92.70
2023-01-25T06:06:43.984Z,92.70
2023-01-25T06:09:12.963Z,92.80
2023-01-25T06:11:45.053Z,92.80
2023-01-25T06:14:12.543Z,92.80
2023-01-25T06:16:40.073Z,92.80
2023-01-25T06:19:25.916Z,93.00
2023-01-25T06:22:09.146Z,92.80
2023-01-25T06:24:46.806Z,92.90
2023-01-25T06:27:34.726Z,92.90
2023-01-25T06:30:04.971Z,93.00
2023-01-25T06:32:33.389Z,92.70
2023-01-25T06:35:00.827Z,92.80
2023-01-25T06:37:28.320Z,92.80
2023-01-25T06:39:55.652Z,92.70
2023-01-25T06:42:26.070Z,92.70
2023-01-25T06:44:53.831Z,92.70
2023-01-25T06:47:21.173Z,92.60
2023-01-25T06:49:48.862Z,92.60
2023-01-25T06:52:16.446Z,92.60
2023-01-25T06:54:43.749Z,92.60
2023-01-25T06:57:12.218Z,92.70
2023-01-25T06:59:39.734Z,92.70
2023-01-25T07:02:07.565Z,92.90
2023-01-25T07:04:35.576Z,93.00
2023-01-25T07:07:02.879Z,92.90
2023-01-25T07:09:30.239Z,92.90
2023-01-25T07:11:59.055Z,92.90
2023-01-25T07:14:26.490Z,93.00
2023-01-25T07:26:25.406Z,93.00
2023-01-25T07:28:54.044Z,93.10
2023-01-25T07:31:21.655Z,93.10
2023-01-25T07:49:42.600Z,93.00
2023-01-25T07:52:10.585Z,93.00
2023-01-25T07:54:37.996Z,93.10
2023-01-25T08:00:16.016Z,93.00
2023-01-25T08:08:53.412Z,92.90
2023-01-25T08:11:26.732Z,92.90
2023-01-25T08:13:54.567Z,93.00
2023-01-25T08:16:25.277Z,93.00
2023-01-25T08:18:55.585Z,93.00
2023-01-25T08:21:25.960Z,93.10
2023-01-25T08:24:07.551Z,93.20
2023-01-25T08:26:36.780Z,93.00
2023-01-25T08:29:08.339Z,93.20
2023-01-25T08:31:36.387Z,93.00
2023-01-25T08:34:04.976Z,93.10
2023-01-25T08:36:32.847Z,93.20
2023-01-25T08:39:02.983Z,93.30
2023-01-25T08:41:32.639Z,93.10
2023-01-25T08:44:00.288Z,93.20
2023-01-25T08:52:25.783Z,93.10
2023-01-25T08:54:53.290Z,93.10
2023-01-25T08:57:20.866Z,93.10
2023-01-25T08:59:50.296Z,93.00
2023-01-25T09:02:19.626Z,93.20
2023-01-25T09:04:47.130Z,93.20
2023-01-25T09:07:14.659Z,93.30
2023-01-25T09:09:43.199Z,93.20
2023-01-25T09:21:34.276Z,93.20
2023-01-25T09:24:07.487Z,93.20
2023-01-25T09:26:38.760Z,93.20
2023-01-25T09:29:08.332Z,93.20
2023-01-25T09:31:40.958Z,93.10
2023-01-25T09:34:32.109Z,93.30
2023-01-25T09:39:49.626Z,93.10
2023-01-25T09:42:21.517Z,93.10
2023-01-25T09:44:55.563Z,93.20
2023-01-25T09:47:26.281Z,93.30
2023-01-25T09:50:16.136Z,93.30
2023-01-25T09:53:02.162Z,93.30
2023-01-25T09:55:31.808Z,93.20
2023-01-25T09:58:02.566Z,93.40
2023-01-25T10:00:34.810Z,93.40
2023-01-25T10:03:05.975Z,93.40
2023-01-25T10:05:41.156Z,93.50
2023-01-25T10:08:57.216Z,93.50
2023-01-25T10:11:34.553Z,93.40
2023-01-25T10:14:23.518Z,93.40
2023-01-25T10:17:12.210Z,93.50
2023-01-25T10:20:09.202Z,93.30
2023-01-25T10:22:46.773Z,93.40
2023-01-25T10:25:28.223Z,93.30
2023-01-25T10:28:18.694Z,93.50
2023-01-25T10:34:17.746Z,93.50
2023-01-25T10:37:04.103Z,93.40
2023-01-25T10:39:37.606Z,93.50
2023-01-25T10:57:08.892Z,93.60
2023-01-25T11:15:25.340Z,93.40
2023-01-25T11:18:08.529Z,93.40
2023-01-25T11:20:36.899Z,93.40
2023-01-25T11:23:26.536Z,93.40
2023-01-25T11:25:54.107Z,93.30
2023-01-25T11:28:24.160Z,93.30
2023-01-25T11:40:32.486Z,93.50
2023-01-25T11:43:09.531Z,93.50
2023-01-25T11:45:49.515Z,93.20
2023-01-25T11:48:29.183Z,93.30
2023-01-25T11:51:14.795Z,93.30
2023-01-25T11:54:06.423Z,93.40
2023-01-25T11:56:59.552Z,93.50
2023-01-25T12:00:00.274Z,93.50
2023-01-25T12:03:00.997Z,93.40
2023-01-25T12:05:37.698Z,93.40
2023-01-25T12:08:22.877Z,93.50
2023-01-25T12:11:02.440Z,93.50
2023-01-25T12:13:36.522Z,93.50
2023-01-25T12:16:30.402Z,93.60
2023-01-25T12:19:39.211Z,93.80
2023-01-25T12:25:30.598Z,93.40
2023-01-25T12:28:20.432Z,93.30
2023-01-25T12:31:10.064Z,93.40
2023-01-25T12:33:49.157Z,93.40
2023-01-25T12:36:31.734Z,93.60
2023-01-25T12:39:09.329Z,93.30
2023-01-25T12:42:12.933Z,93.20
2023-01-25T12:44:56.220Z,93.30
2023-01-25T12:47:36.102Z,93.30
2023-01-25T12:50:18.653Z,93.40
2023-01-25T12:53:01.027Z,93.50
2023-01-25T12:55:29.337Z,93.50
2023-01-25T12:58:23.785Z,93.80
2023-01-25T13:01:15.761Z,93.50
2023-01-25T13:04:17.662Z,93.60
2023-01-25T13:07:34.057Z,93.50
2023-01-25T13:10:23.192Z,93.40
2023-01-25T13:13:04.726Z,93.50
2023-01-25T13:15:42.840Z,93.60
2023-01-25T13:21:44.877Z,93.40
2023-01-25T13:24:18.846Z,93.60
2023-01-25T13:26:52.860Z,93.50
2023-01-25T13:29:39.585Z,93.50
2023-01-25T13:32:34.704Z,93.30
2023-01-25T13:35:02.916Z,93.40
2023-01-25T13:37:32.641Z,93.40
2023-01-25T13:40:06.769Z,93.50
2023-01-25T13:42:37.048Z,93.40
2023-01-25T13:45:20.689Z,93.50
2023-01-25T13:48:08.907Z,93.60
2023-01-25T13:50:40.363Z,93.50
2023-01-25T13:53:15.054Z,93.50
2023-01-25T13:55:46.520Z,93.50
2023-01-25T13:58:24.357Z,93.60
2023-01-25T14:01:07.555Z,93.70
2023-01-25T14:03:50.908Z,93.80
2023-01-25T14:06:50.537Z,93.80
2023-01-25T14:09:22.803Z,93.70
2023-01-25T14:12:26.213Z,93.60
2023-01-25T14:15:41.171Z,93.60
2023-01-25T14:19:20.350Z,93.60
2023-01-25T14:21:48.094Z,93.60
2023-01-25T14:30:53.400Z,93.90
2023-01-25T14:33:30.697Z,93.50
2023-01-25T14:36:24.065Z,93.40
2023-01-25T14:38:52.789Z,93.40
2023-01-25T14:41:34.770Z,93.40
2023-01-25T14:44:11.115Z,93.50
2023-01-25T14:46:41.278Z,93.50
2023-01-25T14:49:26.985Z,93.50
2023-01-25T14:52:10.150Z,93.40
2023-01-25T14:54:55.586Z,93.50
2023-01-25T14:57:33.013Z,93.50
2023-01-25T15:00:03.410Z,93.50
2023-01-25T15:02:55.506Z,93.40
2023-01-25T15:05:25.894Z,93.50
2023-01-25T15:07:55.835Z,93.50
2023-01-25T15:10:31.974Z,93.60
2023-01-25T15:13:20.983Z,93.50
2023-01-25T15:15:52.699Z,93.60
2023-01-25T15:18:45.510Z,93.60
2023-01-25T15:21:18.879Z,93.70
2023-01-25T15:23:48.206Z,93.50
2023-01-25T15:26:23.299Z,93.60
2023-01-25T15:28:55.088Z,93.60
2023-01-25T15:31:53.013Z,93.70
2023-01-25T15:37:17.282Z,93.60
2023-01-25T15:39:58.761Z,93.60
2023-01-25T15:42:41.865Z,93.60
2023-01-25T15:47:54.273Z,93.60
2023-01-25T15:53:05.750Z,93.40
2023-01-25T16:01:09.560Z,93.40
2023-01-25T16:16:36.531Z,93.30
2023-01-25T16:19:06.093Z,93.60
2023-01-25T16:21:43.295Z,93.40
2023-01-25T16:27:41.396Z,93.40
2023-01-25T16:30:30.204Z,93.30
2023-01-25T16:32:57.942Z,93.70
2023-01-25T16:35:25.379Z,93.50
2023-01-25T16:37:52.999Z,93.60
2023-01-25T16:40:24.988Z,93.60
2023-01-25T16:42:52.573Z,93.80
2023-01-25T16:45:20.073Z,93.70
2023-01-25T16:47:47.778Z,93.60
2023-01-25T16:50:22.154Z,93.70
2023-01-25T16:52:51.520Z,93.70
2023-01-25T16:55:19.767Z,93.70
2023-01-25T16:57:50.846Z,93.60
2023-01-25T17:00:18.992Z,93.60
2023-01-25T17:02:58.673Z,93.60
2023-01-25T17:05:33.844Z,93.50
2023-01-25T17:08:01.641Z,93.40
2023-01-25T17:10:57.452Z,93.70
2023-01-25T17:13:25.989Z,93.60
2023-01-25T17:15:56.332Z,93.50
2023-01-25T17:18:24.361Z,93.60
2023-01-25T17:21:11.524Z,93.50
2023-01-25T17:23:39.632Z,93.70
2023-01-25T17:26:12.218Z,93.70
2023-01-25T17:28:40.848Z,93.70
2023-01-25T17:34:27.511Z,93.60
2023-01-25T17:47:19.708Z,93.80
2023-01-25T17:49:48.204Z,93.80
2023-01-25T17:52:16.693Z,93.90
2023-01-25T17:55:05.476Z,93.80
2023-01-25T17:57:33.685Z,94.10
2023-01-25T18:00:01.092Z,94.00
2023-01-25T18:02:28.705Z,93.90
2023-01-25T18:04:58.374Z,94.00
2023-01-25T18:07:25.734Z,93.90
2023-01-25T18:09:53.035Z,93.80
2023-01-25T18:12:20.707Z,93.80
2023-01-25T18:14:48.294Z,93.80
2023-01-25T18:20:40.860Z,93.80
2023-01-25T18:23:08.365Z,93.70
2023-01-25T18:25:36.922Z,93.70
2023-01-25T18:28:04.370Z,93.70
2023-01-25T18:30:39.992Z,93.70
2023-01-25T18:33:07.478Z,93.80
2023-01-25T18:35:35.335Z,93.80
2023-01-25T18:38:03.840Z,93.80
2023-01-25T18:40:32.270Z,93.80
2023-01-25T18:42:59.785Z,93.90
2023-01-25T18:45:27.338Z,93.90
2023-01-25T18:47:55.044Z,94.00
2023-01-25T18:50:23.374Z,93.90
2023-01-25T18:52:58.542Z,94.00
2023-01-25T18:55:27.646Z,93.80
2023-01-25T18:57:57.935Z,94.00
2023-01-25T19:00:25.992Z,93.80
2023-01-25T19:02:53.893Z,93.80
2023-01-25T19:05:22.535Z,93.90
2023-01-25T19:07:50.238Z,93.80
2023-01-25T19:10:18.259Z,93.90
2023-01-25T19:12:45.967Z,93.80
2023-01-25T19:15:14.634Z,93.80
2023-01-25T19:17:47.876Z,93.80
2023-01-25T19:20:17.235Z,93.80
2023-01-25T19:22:44.710Z,93.70
2023-01-25T19:25:12.626Z,93.80
2023-01-25T19:27:40.298Z,93.80
2023-01-25T19:30:08.934Z,93.80
2023-01-25T19:32:36.315Z,93.70
2023-01-25T19:35:04.633Z,93.90
2023-01-25T19:37:32.147Z,93.70
2023-01-25T19:39:59.629Z,93.60
2023-01-25T19:42:27.355Z,93.60
2023-01-25T19:44:55.119Z,93.50
2023-01-25T19:47:25.123Z,93.50
2023-01-25T19:49:52.581Z,93.60
2023-01-25T19:52:20.166Z,93.50
2023-01-25T19:54:48.636Z,93.70
2023-01-25T19:57:20.575Z,93.80
2023-01-25T19:59:53.137Z,93.60
2023-01-25T20:05:32.948Z,93.70
2023-01-25T20:11:40.439Z,93.60
2023-01-25T20:14:11.512Z,93.50
2023-01-25T20:16:39.199Z,93.60
2023-01-25T20:19:06.916Z,93.70
2023-01-25T20:21:40.516Z,93.60
2023-01-25T20:43:00.399Z,93.60
2023-01-25T20:48:23.993Z,93.50
2023-01-25T20:53:52.905Z,93.40
2023-01-25T20:56:30.479Z,93.30
2023-01-25T20:59:03.525Z,93.50
2023-01-25T21:01:38.937Z,93.30
2023-01-25T21:04:39.325Z,93.50
2023-01-25T21:07:38.027Z,93.50
2023-01-25T21:10:10.175Z,93.50
2023-01-25T21:12:42.384Z,93.30
2023-01-25T21:15:11.391Z,93.50
2023-01-25T21:17:39.156Z,93.60
2023-01-25T21:20:07.827Z,93.60
2023-01-25T21:22:35.379Z,93.70
2023-01-25T21:33:53.951Z,94.10
2023-01-25T21:36:21.958Z,94.00
2023-01-25T21:38:51.417Z,94.10
2023-01-25T21:41:24.734Z,94.40
2023-01-25T21:44:12.766Z,94.00
2023-01-25T21:46:40.461Z,94.00
2023-01-25T21:49:28.242Z,93.90
2023-01-25T21:52:01.652Z,93.80
2023-01-25T21:54:34.889Z,93.70
2023-01-25T21:57:05.303Z,93.70
2023-01-25T21:59:32.612Z,93.50
2023-01-25T22:01:59.915Z,93.40
2023-01-25T22:04:27.381Z,93.40
2023-01-25T22:06:55.465Z,93.40
2023-01-25T22:09:23.084Z,93.50
2023-01-25T22:11:50.852Z,93.40
2023-01-25T22:14:19.515Z,93.50
2023-01-25T22:16:46.990Z,93.50
2023-01-25T22:19:14.292Z,93.50
2023-01-25T22:21:41.578Z,93.60
2023-01-25T22:24:11.573Z,93.50
2023-01-25T22:26:44.840Z,93.50
2023-01-25T22:29:12.557Z,93.40
2023-01-25T22:31:40.031Z,93.50
2023-01-25T22:34:07.680Z,93.80
2023-01-25T22:36:34.965Z,93.40
2023-01-25T22:39:02.367Z,93.40
2023-01-25T22:41:32.986Z,93.40
2023-01-25T22:44:00.373Z,93.40
2023-01-25T22:46:29.448Z,93.40
2023-01-25T22:48:58.166Z,93.40
2023-01-25T22:51:28.275Z,93.60
2023-01-25T22:53:57.062Z,93.50
2023-01-25T22:56:27.491Z,93.40
2023-01-25T22:58:55.291Z,93.30
2023-01-25T23:01:28.268Z,93.30
2023-01-25T23:03:56.910Z,93.30
2023-01-25T23:06:27.024Z,93.40
2023-01-25T23:08:56.136Z,93.30
2023-01-25T23:11:25.046Z,93.30
2023-01-25T23:14:11.870Z,93.30
2023-01-25T23:16:39.184Z,93.40
2023-01-25T23:19:06.491Z,93.40
2023-01-25T23:21:35.716Z,93.40
2023-01-25T23:24:03.857Z,93.50
2023-01-25T23:26:37.353Z,93.50
2023-01-25T23:29:14.736Z,93.50
2023-01-25T23:31:42.320Z,93.60
2023-01-25T23:34:11.485Z,93.60
2023-01-25T23:36:39.546Z,93.60
2023-01-25T23:39:06.935Z,93.80
2023-01-25T23:41:34.305Z,93.60
2023-01-25T23:44:01.895Z,93.60
2023-01-25T23:46:29.615Z,93.70
2023-01-25T23:48:57.008Z,93.70
2023-01-25T23:51:24.425Z,93.80
2023-01-25T23:53:53.422Z,93.70
2023-01-25T23:56:21.732Z,93.80
2023-01-25T23:58:49.648Z,93.90
